sensor_id;sensor_type;location;lat;lon;timestamp;P1;durP1;ratioP1;P2;durP2;ratioP2
4198;SDS011;2113;50.946;14.610;2022-11-15T00:00:08;49.72;;;27.13;;
4198;SDS011;2113;50.946;14.610;2022-11-15T00:02:56;50.03;;;28.13;;
4198;SDS011;2113;50.946;14.610;2022-11-15T00:05:43;55.90;;;28.58;;
4198;SDS011;2113;50.946;14.610;2022-11-15T00:08:30;49.67;;;26.75;;
4198;SDS011;2113;50.946;14.610;2022-11-15T00:11:19;47.60;;;26.77;;
4198;SDS011;2113;50.946;14.610;2022-11-15T00:14:05;50.78;;;29.00;;
4198;SDS011;2113;50.946;14.610;2022-11-15T00:16:52;45.90;;;25.63;;
4198;SDS011;2113;50.946;14.610;2022-11-15T00:19:39;50.78;;;26.27;;
4198;SDS011;2113;50.946;14.610;2022-11-15T00:22:31;46.75;;;25.88;;
4198;SDS011;2113;50.946;14.610;2022-11-15T00:25:18;49.20;;;27.90;;
4198;SDS011;2113;50.946;14.610;2022-11-15T00:28:07;51.58;;;28.25;;
4198;SDS011;2113;50.946;14.610;2022-11-15T00:30:59;54.58;;;28.63;;
4198;SDS011;2113;50.946;14.610;2022-11-15T00:33:46;50.13;;;28.30;;
4198;SDS011;2113;50.946;14.610;2022-11-15T00:36:33;48.17;;;27.45;;
4198;SDS011;2113;50.946;14.610;2022-11-15T00:39:20;41.20;;;25.00;;
4198;SDS011;2113;50.946;14.610;2022-11-15T00:42:07;49.40;;;26.55;;
4198;SDS011;2113;50.946;14.610;2022-11-15T00:44:56;45.55;;;26.50;;
4198;SDS011;2113;50.946;14.610;2022-11-15T00:47:43;52.67;;;25.30;;
4198;SDS011;2113;50.946;14.610;2022-11-15T00:50:31;50.25;;;26.60;;
4198;SDS011;2113;50.946;14.610;2022-11-15T00:53:19;43.95;;;24.70;;
4198;SDS011;2113;50.946;14.610;2022-11-15T00:56:06;47.03;;;25.50;;
4198;SDS011;2113;50.946;14.610;2022-11-15T00:58:53;44.33;;;25.52;;
4198;SDS011;2113;50.946;14.610;2022-11-15T01:01:41;46.47;;;25.00;;
4198;SDS011;2113;50.946;14.610;2022-11-15T01:04:28;56.78;;;27.55;;
4198;SDS011;2113;50.946;14.610;2022-11-15T01:07:15;47.67;;;25.88;;
4198;SDS011;2113;50.946;14.610;2022-11-15T01:10:02;56.63;;;26.20;;
4198;SDS011;2113;50.946;14.610;2022-11-15T01:12:50;51.75;;;28.13;;
4198;SDS011;2113;50.946;14.610;2022-11-15T01:15:39;58.17;;;29.60;;
4198;SDS011;2113;50.946;14.610;2022-11-15T01:18:28;61.72;;;26.83;;
4198;SDS011;2113;50.946;14.610;2022-11-15T01:21:15;53.60;;;29.33;;
4198;SDS011;2113;50.946;14.610;2022-11-15T01:24:05;48.17;;;27.52;;
4198;SDS011;2113;50.946;14.610;2022-11-15T01:26:52;45.15;;;25.00;;
4198;SDS011;2113;50.946;14.610;2022-11-15T01:29:39;49.72;;;25.65;;
4198;SDS011;2113;50.946;14.610;2022-11-15T01:32:26;51.67;;;27.70;;
4198;SDS011;2113;50.946;14.610;2022-11-15T01:35:15;44.10;;;24.13;;
4198;SDS011;2113;50.946;14.610;2022-11-15T01:38:02;48.42;;;25.40;;
4198;SDS011;2113;50.946;14.610;2022-11-15T01:40:49;53.75;;;24.90;;
4198;SDS011;2113;50.946;14.610;2022-11-15T01:43:36;47.38;;;25.25;;
4198;SDS011;2113;50.946;14.610;2022-11-15T01:46:25;37.17;;;22.50;;
4198;SDS011;2113;50.946;14.610;2022-11-15T01:49:16;43.70;;;23.08;;
4198;SDS011;2113;50.946;14.610;2022-11-15T01:52:09;48.83;;;24.58;;
4198;SDS011;2113;50.946;14.610;2022-11-15T01:55:00;46.28;;;24.20;;
4198;SDS011;2113;50.946;14.610;2022-11-15T01:57:53;42.67;;;23.75;;
4198;SDS011;2113;50.946;14.610;2022-11-15T02:00:43;42.95;;;24.17;;
4198;SDS011;2113;50.946;14.610;2022-11-15T02:03:33;50.85;;;25.23;;
4198;SDS011;2113;50.946;14.610;2022-11-15T02:06:24;49.35;;;26.58;;
4198;SDS011;2113;50.946;14.610;2022-11-15T02:09:13;56.72;;;28.73;;
4198;SDS011;2113;50.946;14.610;2022-11-15T02:12:00;48.20;;;25.42;;
4198;SDS011;2113;50.946;14.610;2022-11-15T02:14:48;53.50;;;27.80;;
4198;SDS011;2113;50.946;14.610;2022-11-15T02:20:59;59.33;;;30.67;;
4198;SDS011;2113;50.946;14.610;2022-11-15T02:30:50;61.90;;;27.33;;
4198;SDS011;2113;50.946;14.610;2022-11-15T02:33:43;58.13;;;27.80;;
4198;SDS011;2113;50.946;14.610;2022-11-15T02:36:40;48.85;;;25.98;;
4198;SDS011;2113;50.946;14.610;2022-11-15T02:39:44;52.97;;;27.08;;
4198;SDS011;2113;50.946;14.610;2022-11-15T02:42:36;49.53;;;26.20;;
4198;SDS011;2113;50.946;14.610;2022-11-15T02:46:04;46.58;;;24.45;;
4198;SDS011;2113;50.946;14.610;2022-11-15T02:48:56;50.35;;;26.55;;
4198;SDS011;2113;50.946;14.610;2022-11-15T02:51:43;49.75;;;26.10;;
4198;SDS011;2113;50.946;14.610;2022-11-15T02:54:34;46.03;;;24.13;;
4198;SDS011;2113;50.946;14.610;2022-11-15T02:57:26;44.08;;;23.90;;
4198;SDS011;2113;50.946;14.610;2022-11-15T03:00:25;52.72;;;25.92;;
4198;SDS011;2113;50.946;14.610;2022-11-15T03:06:36;47.83;;;26.13;;
4198;SDS011;2113;50.946;14.610;2022-11-15T03:09:29;40.72;;;23.65;;
4198;SDS011;2113;50.946;14.610;2022-11-15T03:12:22;47.00;;;24.38;;
4198;SDS011;2113;50.946;14.610;2022-11-15T03:15:16;46.72;;;25.70;;
4198;SDS011;2113;50.946;14.610;2022-11-15T03:18:09;43.38;;;23.92;;
4198;SDS011;2113;50.946;14.610;2022-11-15T03:21:05;49.53;;;24.50;;
4198;SDS011;2113;50.946;14.610;2022-11-15T03:23:55;48.03;;;24.30;;
4198;SDS011;2113;50.946;14.610;2022-11-15T03:26:47;49.58;;;24.80;;
4198;SDS011;2113;50.946;14.610;2022-11-15T03:29:37;43.70;;;23.25;;
4198;SDS011;2113;50.946;14.610;2022-11-15T03:32:28;41.80;;;23.38;;
4198;SDS011;2113;50.946;14.610;2022-11-15T03:35:18;61.70;;;25.50;;
4198;SDS011;2113;50.946;14.610;2022-11-15T03:38:11;48.47;;;23.08;;
4198;SDS011;2113;50.946;14.610;2022-11-15T03:41:05;46.30;;;24.73;;
4198;SDS011;2113;50.946;14.610;2022-11-15T03:44:04;47.20;;;26.35;;
4198;SDS011;2113;50.946;14.610;2022-11-15T03:47:01;51.88;;;24.98;;
4198;SDS011;2113;50.946;14.610;2022-11-15T03:49:53;51.83;;;24.27;;
4198;SDS011;2113;50.946;14.610;2022-11-15T03:52:45;52.25;;;26.88;;
4198;SDS011;2113;50.946;14.610;2022-11-15T03:55:35;60.63;;;28.83;;
4198;SDS011;2113;50.946;14.610;2022-11-15T03:58:22;55.00;;;27.52;;
4198;SDS011;2113;50.946;14.610;2022-11-15T04:01:08;61.40;;;26.85;;
4198;SDS011;2113;50.946;14.610;2022-11-15T04:03:56;57.58;;;28.95;;
4198;SDS011;2113;50.946;14.610;2022-11-15T04:06:43;56.72;;;28.45;;
4198;SDS011;2113;50.946;14.610;2022-11-15T04:09:30;61.00;;;29.70;;
4198;SDS011;2113;50.946;14.610;2022-11-15T04:12:19;58.10;;;29.73;;
4198;SDS011;2113;50.946;14.610;2022-11-15T04:15:16;62.55;;;30.17;;
4198;SDS011;2113;50.946;14.610;2022-11-15T04:18:05;61.70;;;29.35;;
4198;SDS011;2113;50.946;14.610;2022-11-15T04:20:52;57.65;;;27.75;;
4198;SDS011;2113;50.946;14.610;2022-11-15T04:23:57;56.22;;;29.35;;
4198;SDS011;2113;50.946;14.610;2022-11-15T04:26:58;64.72;;;31.77;;
4198;SDS011;2113;50.946;14.610;2022-11-15T04:29:48;62.60;;;30.98;;
4198;SDS011;2113;50.946;14.610;2022-11-15T04:32:35;60.25;;;32.75;;
4198;SDS011;2113;50.946;14.610;2022-11-15T04:35:21;62.65;;;30.50;;
4198;SDS011;2113;50.946;14.610;2022-11-15T04:38:09;60.47;;;29.23;;
4198;SDS011;2113;50.946;14.610;2022-11-15T04:40:57;55.20;;;28.67;;
4198;SDS011;2113;50.946;14.610;2022-11-15T04:43:44;60.08;;;30.60;;
4198;SDS011;2113;50.946;14.610;2022-11-15T04:46:32;56.05;;;30.17;;
4198;SDS011;2113;50.946;14.610;2022-11-15T04:49:19;54.00;;;28.63;;
4198;SDS011;2113;50.946;14.610;2022-11-15T04:52:06;64.70;;;29.38;;
4198;SDS011;2113;50.946;14.610;2022-11-15T04:54:53;55.30;;;30.73;;
4198;SDS011;2113;50.946;14.610;2022-11-15T04:57:40;59.13;;;30.67;;
4198;SDS011;2113;50.946;14.610;2022-11-15T05:00:27;56.47;;;29.58;;
4198;SDS011;2113;50.946;14.610;2022-11-15T05:03:16;57.75;;;29.90;;
4198;SDS011;2113;50.946;14.610;2022-11-15T05:06:20;55.30;;;28.30;;
4198;SDS011;2113;50.946;14.610;2022-11-15T05:09:07;67.25;;;31.35;;
4198;SDS011;2113;50.946;14.610;2022-11-15T05:11:54;53.97;;;30.10;;
4198;SDS011;2113;50.946;14.610;2022-11-15T05:14:41;54.53;;;26.10;;
4198;SDS011;2113;50.946;14.610;2022-11-15T05:17:28;47.95;;;25.90;;
4198;SDS011;2113;50.946;14.610;2022-11-15T05:20:16;56.22;;;29.27;;
4198;SDS011;2113;50.946;14.610;2022-11-15T05:23:04;56.85;;;27.58;;
4198;SDS011;2113;50.946;14.610;2022-11-15T05:25:51;52.55;;;26.73;;
4198;SDS011;2113;50.946;14.610;2022-11-15T05:28:38;53.75;;;27.23;;
4198;SDS011;2113;50.946;14.610;2022-11-15T05:31:25;58.63;;;24.65;;
4198;SDS011;2113;50.946;14.610;2022-11-15T05:34:13;59.17;;;27.00;;
4198;SDS011;2113;50.946;14.610;2022-11-15T05:37:01;49.10;;;24.98;;
4198;SDS011;2113;50.946;14.610;2022-11-15T05:39:50;61.85;;;26.95;;
4198;SDS011;2113;50.946;14.610;2022-11-15T05:42:36;43.33;;;23.55;;
4198;SDS011;2113;50.946;14.610;2022-11-15T05:45:23;54.53;;;26.27;;
4198;SDS011;2113;50.946;14.610;2022-11-15T05:48:11;50.13;;;25.55;;
4198;SDS011;2113;50.946;14.610;2022-11-15T05:50:59;52.05;;;26.67;;
4198;SDS011;2113;50.946;14.610;2022-11-15T05:53:50;54.45;;;27.08;;
4198;SDS011;2113;50.946;14.610;2022-11-15T05:56:38;60.53;;;28.65;;
4198;SDS011;2113;50.946;14.610;2022-11-15T05:59:25;56.10;;;29.85;;
4198;SDS011;2113;50.946;14.610;2022-11-15T06:02:16;60.88;;;28.40;;
4198;SDS011;2113;50.946;14.610;2022-11-15T06:05:03;48.50;;;23.02;;
4198;SDS011;2113;50.946;14.610;2022-11-15T06:07:51;61.13;;;27.92;;
4198;SDS011;2113;50.946;14.610;2022-11-15T06:10:39;59.30;;;27.90;;
4198;SDS011;2113;50.946;14.610;2022-11-15T06:13:27;60.17;;;27.58;;
4198;SDS011;2113;50.946;14.610;2022-11-15T06:16:15;55.33;;;27.55;;
4198;SDS011;2113;50.946;14.610;2022-11-15T06:19:02;64.28;;;29.63;;
4198;SDS011;2113;50.946;14.610;2022-11-15T06:21:49;50.85;;;27.88;;
4198;SDS011;2113;50.946;14.610;2022-11-15T06:24:37;59.80;;;28.33;;
4198;SDS011;2113;50.946;14.610;2022-11-15T06:27:26;53.47;;;27.63;;
4198;SDS011;2113;50.946;14.610;2022-11-15T06:30:13;51.58;;;26.33;;
4198;SDS011;2113;50.946;14.610;2022-11-15T06:33:01;59.72;;;29.17;;
4198;SDS011;2113;50.946;14.610;2022-11-15T06:35:50;61.63;;;29.98;;
4198;SDS011;2113;50.946;14.610;2022-11-15T06:38:37;62.35;;;29.55;;
4198;SDS011;2113;50.946;14.610;2022-11-15T06:41:24;60.30;;;31.17;;
4198;SDS011;2113;50.946;14.610;2022-11-15T06:44:12;65.75;;;30.65;;
4198;SDS011;2113;50.946;14.610;2022-11-15T06:46:59;67.68;;;33.38;;
4198;SDS011;2113;50.946;14.610;2022-11-15T06:49:46;54.70;;;28.38;;
4198;SDS011;2113;50.946;14.610;2022-11-15T06:52:32;63.10;;;31.25;;
4198;SDS011;2113;50.946;14.610;2022-11-15T06:55:19;66.35;;;35.53;;
4198;SDS011;2113;50.946;14.610;2022-11-15T06:58:06;85.15;;;41.10;;
4198;SDS011;2113;50.946;14.610;2022-11-15T07:00:57;76.90;;;35.05;;
4198;SDS011;2113;50.946;14.610;2022-11-15T07:03:45;64.68;;;31.83;;
4198;SDS011;2113;50.946;14.610;2022-11-15T07:06:32;64.97;;;30.42;;
4198;SDS011;2113;50.946;14.610;2022-11-15T07:09:19;60.92;;;31.40;;
4198;SDS011;2113;50.946;14.610;2022-11-15T07:12:06;61.08;;;34.80;;
4198;SDS011;2113;50.946;14.610;2022-11-15T07:14:53;59.38;;;34.15;;
4198;SDS011;2113;50.946;14.610;2022-11-15T07:17:41;61.50;;;34.25;;
4198;SDS011;2113;50.946;14.610;2022-11-15T07:20:29;57.13;;;32.88;;
4198;SDS011;2113;50.946;14.610;2022-11-15T07:23:16;45.40;;;28.25;;
4198;SDS011;2113;50.946;14.610;2022-11-15T07:26:03;48.25;;;28.38;;
4198;SDS011;2113;50.946;14.610;2022-11-15T07:28:50;38.30;;;25.67;;
4198;SDS011;2113;50.946;14.610;2022-11-15T07:31:38;38.70;;;23.95;;
4198;SDS011;2113;50.946;14.610;2022-11-15T07:34:26;36.97;;;25.15;;
4198;SDS011;2113;50.946;14.610;2022-11-15T07:37:12;35.85;;;24.60;;
4198;SDS011;2113;50.946;14.610;2022-11-15T07:39:59;32.70;;;22.80;;
4198;SDS011;2113;50.946;14.610;2022-11-15T07:42:47;37.70;;;24.42;;
4198;SDS011;2113;50.946;14.610;2022-11-15T07:45:40;34.28;;;20.52;;
4198;SDS011;2113;50.946;14.610;2022-11-15T07:48:28;34.35;;;22.52;;
4198;SDS011;2113;50.946;14.610;2022-11-15T07:51:29;30.33;;;21.90;;
4198;SDS011;2113;50.946;14.610;2022-11-15T07:54:16;56.42;;;37.65;;
4198;SDS011;2113;50.946;14.610;2022-11-15T07:57:03;45.78;;;37.55;;
4198;SDS011;2113;50.946;14.610;2022-11-15T07:59:51;32.17;;;26.08;;
4198;SDS011;2113;50.946;14.610;2022-11-15T08:02:38;29.52;;;21.67;;
4198;SDS011;2113;50.946;14.610;2022-11-15T08:05:27;35.75;;;25.15;;
4198;SDS011;2113;50.946;14.610;2022-11-15T08:08:15;29.02;;;19.27;;
4198;SDS011;2113;50.946;14.610;2022-11-15T08:11:02;29.50;;;18.52;;
4198;SDS011;2113;50.946;14.610;2022-11-15T08:13:50;30.80;;;21.85;;
4198;SDS011;2113;50.946;14.610;2022-11-15T08:16:37;29.52;;;20.95;;
4198;SDS011;2113;50.946;14.610;2022-11-15T08:19:23;26.90;;;18.88;;
4198;SDS011;2113;50.946;14.610;2022-11-15T08:22:10;28.13;;;19.52;;
4198;SDS011;2113;50.946;14.610;2022-11-15T08:24:58;28.55;;;19.13;;
4198;SDS011;2113;50.946;14.610;2022-11-15T08:27:45;28.10;;;20.60;;
4198;SDS011;2113;50.946;14.610;2022-11-15T08:30:34;23.35;;;17.80;;
4198;SDS011;2113;50.946;14.610;2022-11-15T08:33:22;30.35;;;19.70;;
4198;SDS011;2113;50.946;14.610;2022-11-15T08:36:11;26.58;;;19.33;;
4198;SDS011;2113;50.946;14.610;2022-11-15T08:39:00;29.75;;;19.40;;
4198;SDS011;2113;50.946;14.610;2022-11-15T08:41:48;27.55;;;19.45;;
4198;SDS011;2113;50.946;14.610;2022-11-15T08:44:35;24.70;;;18.60;;
4198;SDS011;2113;50.946;14.610;2022-11-15T08:47:22;29.30;;;20.13;;
4198;SDS011;2113;50.946;14.610;2022-11-15T08:50:09;23.67;;;17.27;;
4198;SDS011;2113;50.946;14.610;2022-11-15T08:52:56;24.08;;;18.08;;
4198;SDS011;2113;50.946;14.610;2022-11-15T08:55:42;25.20;;;17.85;;
4198;SDS011;2113;50.946;14.610;2022-11-15T08:58:30;25.75;;;18.10;;
4198;SDS011;2113;50.946;14.610;2022-11-15T09:01:19;26.08;;;18.88;;
4198;SDS011;2113;50.946;14.610;2022-11-15T09:04:07;25.15;;;17.77;;
4198;SDS011;2113;50.946;14.610;2022-11-15T09:06:54;21.48;;;16.60;;
4198;SDS011;2113;50.946;14.610;2022-11-15T09:09:41;28.75;;;17.42;;
4198;SDS011;2113;50.946;14.610;2022-11-15T09:12:28;23.50;;;17.13;;
4198;SDS011;2113;50.946;14.610;2022-11-15T09:15:17;27.20;;;18.70;;
4198;SDS011;2113;50.946;14.610;2022-11-15T09:18:04;26.38;;;18.35;;
4198;SDS011;2113;50.946;14.610;2022-11-15T09:20:51;21.25;;;16.75;;
4198;SDS011;2113;50.946;14.610;2022-11-15T09:23:41;28.52;;;20.45;;
4198;SDS011;2113;50.946;14.610;2022-11-15T09:26:28;25.75;;;17.08;;
4198;SDS011;2113;50.946;14.610;2022-11-15T09:29:15;23.63;;;18.05;;
4198;SDS011;2113;50.946;14.610;2022-11-15T09:32:04;25.80;;;19.02;;
4198;SDS011;2113;50.946;14.610;2022-11-15T09:34:51;27.30;;;18.05;;
4198;SDS011;2113;50.946;14.610;2022-11-15T09:37:38;23.77;;;17.48;;
4198;SDS011;2113;50.946;14.610;2022-11-15T09:40:25;24.95;;;17.05;;
4198;SDS011;2113;50.946;14.610;2022-11-15T09:43:21;24.88;;;17.00;;
4198;SDS011;2113;50.946;14.610;2022-11-15T09:46:16;26.70;;;16.75;;
4198;SDS011;2113;50.946;14.610;2022-11-15T09:49:11;27.65;;;18.00;;
4198;SDS011;2113;50.946;14.610;2022-11-15T09:52:01;27.05;;;18.88;;
4198;SDS011;2113;50.946;14.610;2022-11-15T09:54:31;27.42;;;17.70;;
4198;SDS011;2113;50.946;14.610;2022-11-15T09:57:21;26.70;;;16.42;;
4198;SDS011;2113;50.946;14.610;2022-11-15T09:59:59;25.60;;;16.77;;
4198;SDS011;2113;50.946;14.610;2022-11-15T10:03:06;24.25;;;15.98;;
4198;SDS011;2113;50.946;14.610;2022-11-15T10:05:40;25.40;;;17.17;;
4198;SDS011;2113;50.946;14.610;2022-11-15T10:08:12;21.85;;;14.32;;
4198;SDS011;2113;50.946;14.610;2022-11-15T10:10:54;26.40;;;17.05;;
4198;SDS011;2113;50.946;14.610;2022-11-15T10:13:45;24.40;;;17.25;;
4198;SDS011;2113;50.946;14.610;2022-11-15T10:16:21;30.00;;;18.60;;
4198;SDS011;2113;50.946;14.610;2022-11-15T10:19:12;23.55;;;16.17;;
4198;SDS011;2113;50.946;14.610;2022-11-15T10:21:57;25.40;;;15.88;;
4198;SDS011;2113;50.946;14.610;2022-11-15T10:24:39;22.90;;;15.45;;
4198;SDS011;2113;50.946;14.610;2022-11-15T10:27:11;21.08;;;14.82;;
4198;SDS011;2113;50.946;14.610;2022-11-15T10:29:42;21.80;;;15.98;;
4198;SDS011;2113;50.946;14.610;2022-11-15T10:32:13;23.77;;;17.83;;
4198;SDS011;2113;50.946;14.610;2022-11-15T10:34:44;26.08;;;15.88;;
4198;SDS011;2113;50.946;14.610;2022-11-15T10:37:14;24.27;;;15.95;;
4198;SDS011;2113;50.946;14.610;2022-11-15T10:40:03;23.75;;;15.88;;
4198;SDS011;2113;50.946;14.610;2022-11-15T10:42:33;21.77;;;15.77;;
4198;SDS011;2113;50.946;14.610;2022-11-15T10:45:02;22.13;;;15.02;;
4198;SDS011;2113;50.946;14.610;2022-11-15T10:47:50;23.13;;;14.73;;
4198;SDS011;2113;50.946;14.610;2022-11-15T10:50:27;23.60;;;15.15;;
4198;SDS011;2113;50.946;14.610;2022-11-15T10:52:58;20.65;;;14.07;;
4198;SDS011;2113;50.946;14.610;2022-11-15T10:55:30;25.15;;;15.57;;
4198;SDS011;2113;50.946;14.610;2022-11-15T10:58:02;24.33;;;15.77;;
4198;SDS011;2113;50.946;14.610;2022-11-15T11:00:34;18.92;;;13.45;;
4198;SDS011;2113;50.946;14.610;2022-11-15T11:03:08;23.00;;;13.73;;
4198;SDS011;2113;50.946;14.610;2022-11-15T11:06:04;22.25;;;14.70;;
4198;SDS011;2113;50.946;14.610;2022-11-15T11:08:40;20.33;;;14.82;;
4198;SDS011;2113;50.946;14.610;2022-11-15T11:11:21;19.75;;;14.15;;
4198;SDS011;2113;50.946;14.610;2022-11-15T11:13:50;19.40;;;14.00;;
4198;SDS011;2113;50.946;14.610;2022-11-15T11:16:23;20.52;;;14.20;;
4198;SDS011;2113;50.946;14.610;2022-11-15T11:19:08;23.92;;;14.25;;
4198;SDS011;2113;50.946;14.610;2022-11-15T11:21:49;21.23;;;13.98;;
4198;SDS011;2113;50.946;14.610;2022-11-15T11:24:27;21.65;;;14.50;;
4198;SDS011;2113;50.946;14.610;2022-11-15T11:27:06;24.65;;;13.80;;
4198;SDS011;2113;50.946;14.610;2022-11-15T11:29:46;22.08;;;14.18;;
4198;SDS011;2113;50.946;14.610;2022-11-15T11:32:30;21.90;;;14.45;;
4198;SDS011;2113;50.946;14.610;2022-11-15T11:35:09;22.40;;;14.82;;
4198;SDS011;2113;50.946;14.610;2022-11-15T11:37:45;23.83;;;13.32;;
4198;SDS011;2113;50.946;14.610;2022-11-15T11:40:30;20.65;;;13.50;;
4198;SDS011;2113;50.946;14.610;2022-11-15T11:43:06;23.58;;;15.25;;
4198;SDS011;2113;50.946;14.610;2022-11-15T11:48:46;24.85;;;15.20;;
4198;SDS011;2113;50.946;14.610;2022-11-15T11:51:20;28.15;;;15.82;;
4198;SDS011;2113;50.946;14.610;2022-11-15T11:53:53;25.98;;;14.85;;
4198;SDS011;2113;50.946;14.610;2022-11-15T11:56:28;23.35;;;15.10;;
4198;SDS011;2113;50.946;14.610;2022-11-15T11:59:00;27.02;;;15.80;;
4198;SDS011;2113;50.946;14.610;2022-11-15T12:01:36;27.50;;;18.30;;
4198;SDS011;2113;50.946;14.610;2022-11-15T12:04:09;25.88;;;16.83;;
4198;SDS011;2113;50.946;14.610;2022-11-15T12:06:45;21.48;;;13.50;;
4198;SDS011;2113;50.946;14.610;2022-11-15T12:09:20;20.17;;;13.70;;
4198;SDS011;2113;50.946;14.610;2022-11-15T12:11:58;23.73;;;15.98;;
4198;SDS011;2113;50.946;14.610;2022-11-15T12:14:34;25.70;;;15.50;;
4198;SDS011;2113;50.946;14.610;2022-11-15T12:17:08;22.60;;;14.93;;
4198;SDS011;2113;50.946;14.610;2022-11-15T12:19:38;21.20;;;14.00;;
4198;SDS011;2113;50.946;14.610;2022-11-15T12:22:09;18.55;;;12.32;;
4198;SDS011;2113;50.946;14.610;2022-11-15T12:24:43;22.15;;;14.80;;
4198;SDS011;2113;50.946;14.610;2022-11-15T12:27:18;20.15;;;14.38;;
4198;SDS011;2113;50.946;14.610;2022-11-15T12:29:55;25.75;;;16.83;;
4198;SDS011;2113;50.946;14.610;2022-11-15T12:32:26;25.02;;;15.63;;
4198;SDS011;2113;50.946;14.610;2022-11-15T12:34:57;23.63;;;14.23;;
4198;SDS011;2113;50.946;14.610;2022-11-15T12:40:25;22.48;;;13.45;;
4198;SDS011;2113;50.946;14.610;2022-11-15T12:42:58;21.42;;;12.90;;
4198;SDS011;2113;50.946;14.610;2022-11-15T12:45:30;24.85;;;14.10;;
4198;SDS011;2113;50.946;14.610;2022-11-15T12:51:07;23.08;;;14.90;;
4198;SDS011;2113;50.946;14.610;2022-11-15T12:53:35;28.60;;;15.80;;
4198;SDS011;2113;50.946;14.610;2022-11-15T12:56:23;26.17;;;15.45;;
4198;SDS011;2113;50.946;14.610;2022-11-15T12:58:55;27.33;;;15.93;;
4198;SDS011;2113;50.946;14.610;2022-11-15T13:04:26;26.23;;;17.05;;
4198;SDS011;2113;50.946;14.610;2022-11-15T13:06:58;28.55;;;17.30;;
4198;SDS011;2113;50.946;14.610;2022-11-15T13:09:53;32.13;;;18.15;;
4198;SDS011;2113;50.946;14.610;2022-11-15T13:15:36;25.15;;;15.05;;
4198;SDS011;2113;50.946;14.610;2022-11-15T13:18:28;29.63;;;15.48;;
4198;SDS011;2113;50.946;14.610;2022-11-15T13:21:02;24.77;;;16.20;;
4198;SDS011;2113;50.946;14.610;2022-11-15T13:23:56;27.10;;;17.20;;
4198;SDS011;2113;50.946;14.610;2022-11-15T13:26:25;30.55;;;16.25;;
4198;SDS011;2113;50.946;14.610;2022-11-15T13:28:55;31.25;;;17.00;;
4198;SDS011;2113;50.946;14.610;2022-11-15T13:31:29;25.50;;;16.35;;
4198;SDS011;2113;50.946;14.610;2022-11-15T13:34:03;29.15;;;17.10;;
4198;SDS011;2113;50.946;14.610;2022-11-15T13:37:08;26.15;;;15.57;;
4198;SDS011;2113;50.946;14.610;2022-11-15T13:39:40;23.30;;;13.68;;
4198;SDS011;2113;50.946;14.610;2022-11-15T13:42:13;28.42;;;15.18;;
4198;SDS011;2113;50.946;14.610;2022-11-15T13:44:54;29.00;;;15.77;;
4198;SDS011;2113;50.946;14.610;2022-11-15T13:47:26;26.00;;;14.20;;
4198;SDS011;2113;50.946;14.610;2022-11-15T13:49:56;24.98;;;15.70;;
4198;SDS011;2113;50.946;14.610;2022-11-15T13:52:26;26.35;;;14.85;;
4198;SDS011;2113;50.946;14.610;2022-11-15T13:54:59;26.00;;;15.02;;
4198;SDS011;2113;50.946;14.610;2022-11-15T13:57:36;26.30;;;15.25;;
4198;SDS011;2113;50.946;14.610;2022-11-15T14:00:24;26.02;;;14.82;;
4198;SDS011;2113;50.946;14.610;2022-11-15T14:02:57;24.92;;;14.02;;
4198;SDS011;2113;50.946;14.610;2022-11-15T14:05:35;25.83;;;15.50;;
4198;SDS011;2113;50.946;14.610;2022-11-15T14:08:05;24.77;;;13.50;;
4198;SDS011;2113;50.946;14.610;2022-11-15T14:13:34;28.20;;;15.00;;
4198;SDS011;2113;50.946;14.610;2022-11-15T14:16:14;28.40;;;15.07;;
4198;SDS011;2113;50.946;14.610;2022-11-15T14:18:48;24.80;;;15.00;;
4198;SDS011;2113;50.946;14.610;2022-11-15T14:21:19;28.88;;;15.02;;
4198;SDS011;2113;50.946;14.610;2022-11-15T14:23:47;26.58;;;14.88;;
4198;SDS011;2113;50.946;14.610;2022-11-15T14:26:27;29.15;;;17.25;;
4198;SDS011;2113;50.946;14.610;2022-11-15T14:29:00;27.55;;;15.70;;
4198;SDS011;2113;50.946;14.610;2022-11-15T14:31:51;31.63;;;17.10;;
4198;SDS011;2113;50.946;14.610;2022-11-15T14:34:21;28.80;;;16.95;;
4198;SDS011;2113;50.946;14.610;2022-11-15T14:36:50;30.55;;;15.60;;
4198;SDS011;2113;50.946;14.610;2022-11-15T14:39:19;31.58;;;17.13;;
4198;SDS011;2113;50.946;14.610;2022-11-15T14:41:49;27.67;;;15.48;;
4198;SDS011;2113;50.946;14.610;2022-11-15T14:44:17;28.00;;;15.77;;
4198;SDS011;2113;50.946;14.610;2022-11-15T14:46:47;28.80;;;17.08;;
4198;SDS011;2113;50.946;14.610;2022-11-15T14:49:16;27.35;;;16.33;;
4198;SDS011;2113;50.946;14.610;2022-11-15T14:51:46;32.08;;;15.80;;
4198;SDS011;2113;50.946;14.610;2022-11-15T14:54:14;32.30;;;18.27;;
4198;SDS011;2113;50.946;14.610;2022-11-15T14:56:43;30.60;;;16.45;;
4198;SDS011;2113;50.946;14.610;2022-11-15T14:59:11;28.63;;;16.45;;
4198;SDS011;2113;50.946;14.610;2022-11-15T15:01:40;27.27;;;16.20;;
4198;SDS011;2113;50.946;14.610;2022-11-15T15:04:09;26.48;;;15.75;;
4198;SDS011;2113;50.946;14.610;2022-11-15T15:06:38;30.80;;;16.02;;
4198;SDS011;2113;50.946;14.610;2022-11-15T15:09:08;34.22;;;17.60;;
4198;SDS011;2113;50.946;14.610;2022-11-15T15:11:37;28.83;;;17.65;;
4198;SDS011;2113;50.946;14.610;2022-11-15T15:14:07;30.30;;;16.95;;
4198;SDS011;2113;50.946;14.610;2022-11-15T15:16:36;31.27;;;16.90;;
4198;SDS011;2113;50.946;14.610;2022-11-15T15:19:05;30.75;;;18.27;;
4198;SDS011;2113;50.946;14.610;2022-11-15T15:21:34;28.30;;;15.70;;
4198;SDS011;2113;50.946;14.610;2022-11-15T15:24:04;32.00;;;16.27;;
4198;SDS011;2113;50.946;14.610;2022-11-15T15:26:34;32.83;;;17.40;;
4198;SDS011;2113;50.946;14.610;2022-11-15T15:29:05;29.42;;;16.35;;
4198;SDS011;2113;50.946;14.610;2022-11-15T15:31:35;31.02;;;17.40;;
4198;SDS011;2113;50.946;14.610;2022-11-15T15:34:04;28.42;;;16.65;;
4198;SDS011;2113;50.946;14.610;2022-11-15T15:36:39;31.55;;;17.52;;
4198;SDS011;2113;50.946;14.610;2022-11-15T15:39:08;29.83;;;16.33;;
4198;SDS011;2113;50.946;14.610;2022-11-15T15:41:39;36.45;;;18.05;;
4198;SDS011;2113;50.946;14.610;2022-11-15T15:44:07;26.60;;;16.67;;
4198;SDS011;2113;50.946;14.610;2022-11-15T15:46:36;34.53;;;17.80;;
4198;SDS011;2113;50.946;14.610;2022-11-15T15:49:04;35.55;;;17.17;;
4198;SDS011;2113;50.946;14.610;2022-11-15T15:51:32;33.42;;;16.90;;
4198;SDS011;2113;50.946;14.610;2022-11-15T15:54:01;36.15;;;18.00;;
4198;SDS011;2113;50.946;14.610;2022-11-15T15:56:30;36.53;;;17.75;;
4198;SDS011;2113;50.946;14.610;2022-11-15T15:58:59;34.05;;;17.83;;
4198;SDS011;2113;50.946;14.610;2022-11-15T16:01:27;34.90;;;17.75;;
4198;SDS011;2113;50.946;14.610;2022-11-15T16:03:56;39.58;;;21.13;;
4198;SDS011;2113;50.946;14.610;2022-11-15T16:06:35;34.17;;;17.75;;
4198;SDS011;2113;50.946;14.610;2022-11-15T16:09:06;38.92;;;18.70;;
4198;SDS011;2113;50.946;14.610;2022-11-15T16:11:43;39.78;;;19.55;;
4198;SDS011;2113;50.946;14.610;2022-11-15T16:14:14;41.45;;;17.70;;
4198;SDS011;2113;50.946;14.610;2022-11-15T16:16:42;30.55;;;15.77;;
4198;SDS011;2113;50.946;14.610;2022-11-15T16:19:11;38.05;;;19.67;;
4198;SDS011;2113;50.946;14.610;2022-11-15T16:21:39;33.00;;;17.58;;
4198;SDS011;2113;50.946;14.610;2022-11-15T16:24:08;35.75;;;17.67;;
4198;SDS011;2113;50.946;14.610;2022-11-15T16:26:36;37.42;;;18.40;;
4198;SDS011;2113;50.946;14.610;2022-11-15T16:29:05;47.25;;;21.17;;
4198;SDS011;2113;50.946;14.610;2022-11-15T16:31:37;41.38;;;18.67;;
4198;SDS011;2113;50.946;14.610;2022-11-15T16:34:05;41.50;;;19.65;;
4198;SDS011;2113;50.946;14.610;2022-11-15T16:36:34;44.80;;;19.67;;